Time;durP1;ratioP1;P1;durP2;ratioP2;P2;SDS_P1;SDS_P2;PMS_P1;PMS_P2;Temp;Humidity;BMP_temperature;BMP_pressure;BME280_temperature;BME280_humidity;BME280_pressure;Samples;Min_cycle;Max_cycle;Signal;HPM_P1;HPM_P2
2022/08/14 00:00:19;;;;;;;7.88;7.10;;;;;;;25.65;51.78;98941.28;5154410;27;20101;-43
2022/08/14 00:02:44;;;;;;;8.60;6.93;;;;;;;25.71;51.68;98939.97;5154588;27;20083;-44
2022/08/14 00:05:13;;;;;;;8.68;6.88;;;;;;;25.91;50.88;98932.22;5136241;27;20023;-46
2022/08/14 00:07:39;;;;;;;8.95;7.32;;;;;;;25.42;52.21;98937.94;5154539;27;20027;-43
2022/08/14 00:10:07;;;;;;;8.25;6.93;;;;;;;25.36;52.38;98929.13;5154282;27;20110;-44
2022/08/14 00:12:36;;;;;;;7.00;6.22;;;;;;;25.40;52.27;98928.47;5154224;27;20045;-45
2022/08/14 00:15:06;;;;;;;7.63;6.55;;;;;;;25.65;51.57;98929.59;5154237;27;20023;-44
2022/08/14 00:17:31;;;;;;;8.32;6.82;;;;;;;25.83;50.83;98919.44;5154328;27;20473;-44
2022/08/14 00:19:57;;;;;;;8.13;6.82;;;;;;;25.70;51.02;98922.03;5154258;27;20023;-47
2022/08/14 00:22:22;;;;;;;8.00;7.20;;;;;;;25.48;51.65;98927.69;5153952;27;20462;-45
2022/08/14 00:24:48;;;;;;;7.45;6.72;;;;;;;25.45;51.80;98920.16;5154217;27;20030;-43
2022/08/14 00:27:13;;;;;;;7.55;6.65;;;;;;;25.52;51.57;98921.25;5153653;27;20482;-46
2022/08/14 00:29:39;;;;;;;7.45;6.75;;;;;;;25.52;51.40;98920.47;5153983;27;20102;-44
2022/08/14 00:32:05;;;;;;;8.38;6.68;;;;;;;25.93;50.31;98922.66;5154159;27;20026;-45
2022/08/14 00:34:30;;;;;;;7.50;6.70;;;;;;;25.38;51.92;98917.94;5153973;27;20105;-43
2022/08/14 00:36:56;;;;;;;7.95;6.90;;;;;;;25.17;52.39;98912.31;5153831;27;20011;-44
2022/08/14 00:39:22;;;;;;;8.52;6.50;;;;;;;25.34;51.81;98912.31;5153778;27;20031;-44
2022/08/14 00:41:48;;;;;;;7.50;6.43;;;;;;;25.43;51.73;98909.56;5153717;27;20022;-43
2022/08/14 00:44:14;;;;;;;7.43;6.30;;;;;;;25.71;50.88;98907.28;5153820;27;20022;-43
2022/08/14 00:46:40;;;;;;;6.80;6.10;;;;;;;25.76;50.53;98903.59;5153918;27;20019;-43
2022/08/14 00:49:07;;;;;;;7.45;6.75;;;;;;;25.25;51.99;98899.84;5153686;27;20454;-42
2022/08/14 00:51:33;;;;;;;7.00;6.30;;;;;;;25.13;52.16;98905.88;5153707;27;20031;-44
2022/08/14 00:54:01;;;;;;;7.47;6.70;;;;;;;25.17;52.33;98909.59;5153530;27;20019;-43
2022/08/14 00:56:27;;;;;;;7.55;6.20;;;;;;;25.47;51.45;98904.28;5153341;27;20094;-46
2022/08/14 00:58:54;;;;;;;7.30;6.43;;;;;;;26.14;49.59;98905.56;5153586;27;20034;-43
2022/08/14 01:01:20;;;;;;;7.50;6.25;;;;;;;25.55;51.07;98900.75;5153580;27;20075;-44
2022/08/14 01:03:45;;;;;;;7.47;6.57;;;;;;;25.28;51.91;98897.25;5153213;27;20019;-44
2022/08/14 01:06:15;;;;;;;6.70;6.00;;;;;;;25.31;51.98;98904.00;5153176;27;20023;-45
2022/08/14 01:08:42;;;;;;;7.13;6.20;;;;;;;25.36;51.88;98898.41;5153391;27;20019;-43
2022/08/14 01:11:14;;;;;;;8.75;6.38;;;;;;;25.64;51.23;98890.63;5153198;27;20025;-42
2022/08/14 01:13:41;;;;;;;8.20;6.15;;;;;;;25.81;50.22;98900.69;5152934;27;20021;-46
2022/08/14 01:16:10;;;;;;;7.38;6.50;;;;;;;25.32;51.69;98903.69;5153114;27;20027;-44
2022/08/14 01:21:38;;;;;;;6.93;6.10;;;;;;;25.26;51.77;98890.53;5153434;27;20453;-43
2022/08/14 01:24:06;;;;;;;7.78;6.50;;;;;;;25.32;51.53;98887.34;5152885;27;20546;-44
2022/08/14 01:26:34;;;;;;;7.38;6.68;;;;;;;25.91;49.46;98892.19;5152881;27;20095;-44
2022/08/14 01:29:00;;;;;;;7.65;6.88;;;;;;;25.30;51.58;98891.50;5152923;27;20015;-46
2022/08/14 01:31:30;;;;;;;7.85;6.90;;;;;;;25.20;51.66;98892.59;5152823;27;20023;-44
2022/08/14 01:33:59;;;;;;;7.55;6.75;;;;;;;25.22;51.86;98898.50;5152588;27;20133;-44
2022/08/14 01:36:26;;;;;;;7.20;6.35;;;;;;;25.17;51.79;98887.81;5152739;27;20090;-46
2022/08/14 01:38:57;;;;;;;10.40;6.95;;;;;;;25.62;50.85;98900.25;5152915;27;20033;-46
2022/08/14 01:41:26;;;;;;;8.50;7.63;;;;;;;25.51;51.28;98900.59;5152653;27;20018;-43
2022/08/14 01:43:59;;;;;;;8.73;7.13;;;;;;;25.16;52.46;98899.81;5152447;27;20031;-43
2022/08/14 01:46:28;;;;;;;8.00;7.05;;;;;;;25.11;52.37;98900.78;5152497;27;20252;-45
2022/08/14 01:48:55;;;;;;;8.35;7.10;;;;;;;25.09;52.36;98891.31;5152848;27;20474;-45
2022/08/14 01:51:25;;;;;;;8.10;7.30;;;;;;;25.09;52.55;98902.19;5152434;27;20022;-44
2022/08/14 01:54:04;;;;;;;8.85;7.55;;;;;;;25.41;51.58;98903.66;5152494;27;20015;-46
2022/08/14 01:56:36;;;;;;;8.90;7.68;;;;;;;24.98;52.76;98894.38;5152107;27;20061;-43
2022/08/14 01:59:25;;;;;;;8.93;8.07;;;;;;;24.77;53.59;98899.63;5152317;27;20046;-43
2022/08/14 02:01:53;;;;;;;9.63;7.70;;;;;;;24.91;53.24;98906.84;5152297;27;20483;-43
2022/08/14 02:04:19;;;;;;;8.27;7.43;;;;;;;24.92;53.34;98892.94;5152149;27;20486;-43
2022/08/14 02:06:49;;;;;;;10.80;7.95;;;;;;;25.73;50.89;98891.41;5151265;27;20526;-44
2022/08/14 02:09:16;;;;;;;8.75;7.80;;;;;;;25.11;52.78;98889.88;5151977;27;20022;-43
2022/08/14 02:11:42;;;;;;;11.10;7.65;;;;;;;24.92;53.59;98886.66;5152293;27;20030;-44
2022/08/14 02:14:10;;;;;;;8.55;7.60;;;;;;;24.84;53.53;98885.53;5152283;27;20026;-43
2022/08/14 02:16:39;;;;;;;9.00;7.80;;;;;;;24.93;53.41;98875.47;5152208;27;20046;-44
2022/08/14 02:19:08;;;;;;;11.23;7.85;;;;;;;25.51;51.60;98873.38;5152030;27;20019;-44
2022/08/14 02:21:35;;;;;;;;;;;;;;;25.28;52.25;98875.47;5152253;27;20051;-44
2022/08/14 02:24:03;;;;;;;8.82;7.93;;;;;;;24.98;53.15;98874.53;5151682;27;19970;-46
2022/08/14 02:26:32;;;;;;;9.13;7.47;;;;;;;24.88;53.14;98872.91;5151886;27;20046;-44
2022/08/14 02:29:00;;;;;;;8.90;8.00;;;;;;;25.07;52.62;98885.38;5151859;27;20023;-45
2022/08/14 02:31:36;;;;;;;9.65;8.20;;;;;;;25.64;51.04;98876.22;5151657;27;20046;-43
2022/08/14 02:34:09;;;;;;;9.80;8.00;;;;;;;25.11;52.27;98867.28;5151903;27;20026;-42
2022/08/14 02:36:39;;;;;;;9.13;7.60;;;;;;;24.80;53.25;98872.91;5151681;27;20148;-42
2022/08/14 02:39:06;;;;;;;9.13;7.93;;;;;;;24.83;53.19;98864.09;5151765;27;20030;-45
2022/08/14 02:41:33;;;;;;;8.23;7.43;;;;;;;24.96;52.56;98866.69;5151876;27;20019;-45
2022/08/14 02:43:58;;;;;;;8.63;7.63;;;;;;;25.42;51.36;98867.16;5151677;27;20402;-42
2022/08/14 02:46:24;;;;;;;9.00;7.60;;;;;;;24.86;52.55;98868.91;5151420;27;20513;-42
2022/08/14 02:48:50;;;;;;;10.20;7.82;;;;;;;24.88;52.73;98867.44;5151653;27;20446;-45
2022/08/14 02:51:16;;;;;;;9.98;7.93;;;;;;;24.88;52.76;98866.66;5151782;27;20023;-42
2022/08/14 02:53:44;;;;;;;8.48;7.68;;;;;;;24.94;52.55;98868.91;5151687;27;20015;-43
2022/08/14 02:56:14;;;;;;;9.05;7.65;;;;;;;25.48;51.12;98854.94;5151611;27;20474;-44
2022/08/14 02:58:42;;;;;;;9.23;7.78;;;;;;;25.10;52.07;98863.00;5151639;27;20523;-44
2022/08/14 03:01:08;;;;;;;9.65;7.68;;;;;;;24.91;52.70;98855.94;5151708;27;20203;-44
2022/08/14 03:03:36;;;;;;;8.45;7.65;;;;;;;24.90;52.76;98859.78;5151377;27;20027;-45
2022/08/14 03:06:07;;;;;;;9.38;7.93;;;;;;;25.01;52.21;98854.81;5151734;27;20045;-46
2022/08/14 03:08:35;;;;;;;8.73;7.93;;;;;;;24.94;52.55;98862.66;5151371;27;20506;-45
2022/08/14 03:11:08;;;;;;;10.60;7.72;;;;;;;25.33;51.11;98850.03;5151384;27;20022;-42
2022/08/14 03:13:35;;;;;;;9.18;8.05;;;;;;;24.76;53.24;98853.69;5151345;27;20112;-43
2022/08/14 03:16:04;;;;;;;8.88;7.97;;;;;;;24.76;53.46;98853.69;5151414;27;20044;-45
2022/08/14 03:18:30;;;;;;;8.73;7.82;;;;;;;24.73;53.47;98854.31;5153877;27;20033;-42
2022/08/14 03:20:56;;;;;;;9.93;7.80;;;;;;;24.80;53.44;98848.41;5155714;27;20019;-43
2022/08/14 03:23:22;;;;;;;9.18;7.95;;;;;;;25.39;51.61;98846.00;5155275;27;20027;-45
2022/08/14 03:25:47;;;;;;;9.18;8.10;;;;;;;24.81;53.64;98844.56;5154824;27;20033;-43
2022/08/14 03:28:13;;;;;;;9.73;8.15;;;;;;;24.52;54.03;98837.81;5155282;27;20029;-43
2022/08/14 03:30:39;;;;;;;9.10;8.05;;;;;;;24.56;54.32;98857.81;5155096;27;20530;-43
2022/08/14 03:33:05;;;;;;;9.18;8.15;;;;;;;24.49;54.60;98847.41;5155201;27;20073;-46
2022/08/14 03:35:32;;;;;;;9.48;8.57;;;;;;;24.61;54.18;98843.28;5155112;27;20026;-44
2022/08/14 03:38:07;;;;;;;9.23;7.78;;;;;;;24.81;53.85;98848.09;5155031;27;20405;-43
2022/08/14 03:40:33;;;;;;;18.42;8.20;;;;;;;24.47;54.79;98855.06;5154803;27;20410;-44
2022/08/14 03:42:58;;;;;;;10.68;8.20;;;;;;;24.39;55.14;98864.03;5154805;27;20034;-43
2022/08/14 03:45:24;;;;;;;10.07;8.15;;;;;;;24.29;55.40;98856.94;5154915;27;20022;-43
2022/08/14 03:47:49;;;;;;;9.05;8.15;;;;;;;24.42;55.22;98862.59;5154882;27;20101;-45
2022/08/14 03:50:15;;;;;;;11.63;8.88;;;;;;;24.73;54.14;98854.31;5154571;27;20102;-44
2022/08/14 03:52:43;;;;;;;9.48;8.48;;;;;;;23.84;56.96;98869.88;5154311;27;20015;-43
2022/08/14 03:55:11;;;;;;;10.73;8.55;;;;;;;23.81;57.31;98869.41;5154006;27;20026;-44
2022/08/14 03:57:38;;;;;;;10.00;8.40;;;;;;;23.96;57.37;98875.53;5154392;27;20023;-41
2022/08/14 04:00:10;;;;;;;12.15;9.05;;;;;;;24.10;56.92;98876.22;5154270;27;20042;-43
2022/08/14 04:02:39;;;;;;;9.85;8.85;;;;;;;24.63;55.48;98876.41;5154372;27;20054;-42
2022/08/14 04:05:07;;;;;;;12.07;8.95;;;;;;;24.25;56.90;98875.00;5154493;27;20027;-42
2022/08/14 04:07:32;;;;;;;11.35;9.25;;;;;;;23.96;58.12;98878.25;5154007;27;20027;-43
2022/08/14 04:09:59;;;;;;;10.35;8.90;;;;;;;23.99;57.83;98855.91;5154219;27;20030;-44
2022/08/14 04:12:24;;;;;;;10.80;9.13;;;;;;;24.25;57.70;98883.16;5154314;27;20019;-44
2022/08/14 04:14:51;;;;;;;10.40;9.30;;;;;;;24.54;56.65;98890.78;5153911;27;20019;-43
2022/08/14 04:17:19;;;;;;;10.88;9.00;;;;;;;24.95;55.71;98889.56;5154235;27;20045;-45
2022/08/14 04:19:46;;;;;;;10.50;8.98;;;;;;;24.35;57.70;98885.59;5154061;27;20045;-43
2022/08/14 04:22:12;;;;;;;12.65;9.68;;;;;;;24.33;58.10;98898.72;5153762;27;20486;-43
2022/08/14 04:24:38;;;;;;;11.25;9.70;;;;;;;24.38;57.87;98889.59;5153838;27;20022;-43
2022/08/14 04:27:08;;;;;;;10.65;9.60;;;;;;;24.65;57.38;98901.38;5154005;27;20046;-43
2022/08/14 04:29:40;;;;;;;11.90;9.77;;;;;;;25.14;55.70;98888.44;5153308;27;20075;-42
2022/08/14 04:32:10;;;;;;;13.13;10.18;;;;;;;24.78;57.13;98903.16;5153935;27;20023;-42
2022/08/14 04:34:40;;;;;;;14.55;9.70;;;;;;;24.56;57.78;98899.44;5153666;27;20025;-42
2022/08/14 04:45:25;;;;;;;11.15;10.05;;;;;;;24.82;56.64;98893.22;5153759;27;20034;-43
2022/08/14 04:50:36;;;;;;;11.75;10.13;;;;;;;24.64;57.82;98891.63;5153586;27;20070;-43
2022/08/14 04:53:01;;;;;;;11.55;10.23;;;;;;;24.84;57.22;98895.63;5153478;27;20034;-43
2022/08/14 04:55:27;;;;;;;12.68;10.30;;;;;;;25.23;56.35;98881.09;5153320;27;20019;-43
2022/08/14 04:57:53;;;;;;;14.68;9.77;;;;;;;25.53;55.38;98887.47;5153438;27;20054;-43
2022/08/14 05:00:18;;;;;;;11.65;10.20;;;;;;;25.34;55.80;98881.56;5153254;27;20110;-43
2022/08/14 05:02:44;;;;;;;14.38;9.93;;;;;;;25.43;55.77;98887.00;5153190;27;20019;-45
2022/08/14 05:05:10;;;;;;;12.27;9.48;;;;;;;25.93;54.72;98894.56;5153279;27;20018;-43
2022/08/14 05:07:35;;;;;;;10.90;9.35;;;;;;;26.52;52.83;98882.91;5153258;27;20022;-44
2022/08/14 05:10:01;;;;;;;11.40;9.10;;;;;;;27.44;50.63;98889.47;5153082;27;20110;-42
2022/08/14 05:12:27;;;;;;;10.13;8.93;;;;;;;27.32;50.64;98883.97;5153086;27;20155;-44
2022/08/14 05:14:53;;;;;;;10.60;8.52;;;;;;;27.48;50.11;98882.22;5153034;27;20030;-41
2022/08/14 05:17:18;;;;;;;10.15;8.55;;;;;;;27.54;49.86;98875.38;5153051;27;20050;-43
2022/08/14 05:19:43;;;;;;;11.38;8.45;;;;;;;28.24;47.85;98875.38;5153043;27;20405;-45
2022/08/14 05:22:09;;;;;;;8.90;8.00;;;;;;;28.86;46.26;98872.56;5152528;27;20403;-43
2022/08/14 05:24:34;;;;;;;8.82;7.93;;;;;;;29.43;44.80;98874.22;5152980;27;20027;-44
2022/08/14 05:27:02;;;;;;;9.20;8.18;;;;;;;29.33;45.03;98868.44;5152701;27;20050;-45
2022/08/14 05:29:27;;;;;;;11.32;8.15;;;;;;;29.28;45.26;98871.44;5152928;27;20037;-43
2022/08/14 05:31:55;;;;;;;8.80;7.88;;;;;;;29.80;43.88;98867.75;5152569;27;20023;-46
2022/08/14 05:34:22;;;;;;;8.23;7.43;;;;;;;30.29;42.50;98872.84;5152492;27;20022;-43
2022/08/14 05:36:48;;;;;;;8.68;7.70;;;;;;;30.43;41.79;98866.13;5152742;27;20022;-44
2022/08/14 05:39:13;;;;;;;9.82;7.80;;;;;;;29.39;43.85;98862.34;5152691;27;20516;-43
2022/08/14 05:41:39;;;;;;;8.13;7.32;;;;;;;28.97;44.52;98875.63;5152528;27;20023;-44
2022/08/14 05:44:04;;;;;;;8.77;7.40;;;;;;;28.86;44.71;98872.56;5152425;27;20197;-41
2022/08/14 05:46:30;;;;;;;8.20;7.05;;;;;;;28.94;44.54;98879.88;5152701;27;20015;-42
2022/08/14 05:48:57;;;;;;;8.65;7.47;;;;;;;29.50;43.37;98875.56;5152837;27;20622;-43
2022/08/14 05:51:24;;;;;;;8.20;7.45;;;;;;;28.93;44.46;98877.47;5152781;27;20188;-42
2022/08/14 05:53:49;;;;;;;11.60;7.82;;;;;;;28.84;44.88;98877.59;5152686;27;20026;-43
2022/08/14 05:56:15;;;;;;;8.98;7.85;;;;;;;28.99;44.78;98865.91;5152372;27;20030;-44
2022/08/14 05:58:40;;;;;;;8.73;7.88;;;;;;;29.11;44.47;98873.31;5152639;27;20078;-46
2022/08/14 06:01:08;;;;;;;8.75;7.85;;;;;;;29.61;44.02;98873.91;5152436;27;20026;-43
2022/08/14 06:03:33;;;;;;;10.00;7.78;;;;;;;29.16;44.67;98872.28;5152203;27;20018;-44
2022/08/14 06:05:59;;;;;;;10.50;8.38;;;;;;;28.71;45.55;98879.59;5152485;27;20090;-42
2022/08/14 06:08:31;;;;;;;11.10;8.57;;;;;;;28.66;45.94;98877.09;5152154;27;20028;-42
2022/08/14 06:11:01;;;;;;;10.65;8.00;;;;;;;28.33;46.64;98880.75;5152448;27;20083;-42
2022/08/14 06:13:37;;;;;;;10.70;8.18;;;;;;;28.11;47.66;98886.69;5152501;27;20128;-46
2022/08/14 06:16:03;;;;;;;12.57;8.35;;;;;;;27.78;48.38;98885.59;5151984;27;20025;-43
2022/08/14 06:18:29;;;;;;;10.23;8.60;;;;;;;27.58;48.83;98879.03;5152289;27;20022;-44
2022/08/14 06:20:54;;;;;;;9.93;8.07;;;;;;;27.26;49.45;98886.09;5152078;27;20023;-44
2022/08/14 06:23:20;;;;;;;9.25;7.90;;;;;;;27.64;48.67;98879.63;5152130;27;20046;-45
2022/08/14 06:25:45;;;;;;;9.07;8.13;;;;;;;28.00;47.56;98878.13;5152049;27;20022;-44
2022/08/14 06:28:22;;;;;;;8.93;8.02;;;;;;;27.25;49.11;98877.13;5151779;27;20458;-45
2022/08/14 06:30:49;;;;;;;8.43;7.55;;;;;;;26.82;49.98;98874.72;5151926;27;20026;-44
2022/08/14 06:33:16;;;;;;;8.43;7.60;;;;;;;26.83;49.80;98893.50;5151957;27;20018;-45
2022/08/14 06:35:42;;;;;;;9.05;8.15;;;;;;;26.97;50.03;98895.94;5151705;27;20368;-43
2022/08/14 06:38:08;;;;;;;9.25;8.30;;;;;;;26.72;50.70;98886.84;5151687;27;20029;-45
2022/08/14 06:40:36;;;;;;;8.85;7.88;;;;;;;26.57;51.21;98887.38;5151747;27;20027;-44
2022/08/14 06:43:06;;;;;;;;;;;;;;;26.31;51.61;98897.31;5152356;27;20019;-43
2022/08/14 06:45:33;;;;;;;9.15;8.35;;;;;;;26.39;51.56;98897.59;5151737;27;20396;-45
2022/08/14 06:48:00;;;;;;;14.60;9.88;;;;;;;26.16;52.10;98897.06;5151949;27;20098;-43
2022/08/14 06:50:26;;;;;;;13.07;9.45;;;;;;;26.65;51.11;98895.53;5151656;27;20102;-43
2022/08/14 06:52:53;;;;;;;12.05;8.65;;;;;;;26.16;52.46;98894.34;5134300;27;20095;-44
2022/08/14 06:55:19;;;;;;;11.90;9.00;;;;;;;26.50;51.54;98891.44;5155871;27;20026;-44
2022/08/14 06:57:47;;;;;;;12.52;9.25;;;;;;;26.57;51.43;98892.84;5156005;27;20158;-42
2022/08/14 07:00:17;;;;;;;9.48;8.48;;;;;;;26.41;51.37;98893.41;5155928;27;20018;-42
2022/08/14 07:05:45;;;;;;;15.35;13.75;;;;;;;26.40;51.75;98902.72;5156060;27;20030;-44
2022/08/14 07:08:27;;;;;;;12.48;8.23;;;;;;;25.88;52.79;98894.75;5156222;27;20018;-45
2022/08/14 07:10:55;;;;;;;9.38;8.32;;;;;;;26.55;51.41;98897.84;5156153;27;20101;-42
2022/08/14 07:13:21;;;;;;;10.25;8.40;;;;;;;26.82;50.33;98891.09;5156011;27;20167;-44
2022/08/14 07:15:51;;;;;;;9.52;8.38;;;;;;;27.53;48.07;98892.13;5155814;27;20023;-44
2022/08/14 07:18:31;;;;;;;11.20;8.10;;;;;;;26.86;49.37;98887.34;5155408;27;20102;-44
2022/08/14 07:21:00;;;;;;;9.65;7.82;;;;;;;26.83;49.97;98898.97;5155922;27;20042;-44
2022/08/14 07:23:26;;;;;;;9.60;8.13;;;;;;;26.70;50.05;98903.53;5155402;27;20465;-43
2022/08/14 07:25:55;;;;;;;8.48;7.60;;;;;;;26.52;50.46;98902.00;5155517;27;20220;-43
2022/08/14 07:28:39;;;;;;;9.52;8.07;;;;;;;26.56;50.41;98902.97;5155528;27;20529;-43
2022/08/14 07:31:07;;;;;;;9.35;8.23;;;;;;;26.09;51.85;98906.56;5155637;27;20074;-42
2022/08/14 07:33:40;;;;;;;9.27;8.27;;;;;;;26.13;51.98;98901.25;5155494;27;20041;-44
2022/08/14 07:36:09;;;;;;;11.60;8.00;;;;;;;26.07;52.14;98908.81;5155461;27;20026;-44
2022/08/14 07:38:35;;;;;;;9.48;8.07;;;;;;;26.24;51.86;98909.88;5155354;27;20030;-44
2022/08/14 07:41:01;;;;;;;11.35;8.48;;;;;;;26.39;50.79;98913.94;5155351;27;20027;-43
2022/08/14 07:43:26;;;;;;;11.13;8.27;;;;;;;26.19;51.27;98908.13;5155241;27;20403;-43
2022/08/14 07:45:52;;;;;;;10.93;8.13;;;;;;;25.76;53.89;98909.06;5154758;27;20470;-42
2022/08/14 07:48:17;;;;;;;10.15;8.07;;;;;;;25.85;55.05;98915.25;5155353;27;20347;-43
2022/08/14 07:50:44;;;;;;;11.02;8.25;;;;;;;26.08;55.22;98912.31;5155118;27;20159;-44
2022/08/14 07:53:13;;;;;;;10.20;8.25;;;;;;;26.14;54.88;98914.56;5155116;27;20022;-43
2022/08/14 07:55:40;;;;;;;10.02;8.68;;;;;;;25.96;55.28;98904.84;5154969;27;20026;-45
2022/08/14 07:58:05;;;;;;;9.00;7.97;;;;;;;25.74;56.09;98911.28;5154913;27;20037;-44
2022/08/14 08:00:32;;;;;;;10.45;8.45;;;;;;;25.53;56.97;98913.88;5154861;27;20018;-44
2022/08/14 08:02:58;;;;;;;9.60;8.38;;;;;;;25.25;57.77;98908.81;5154543;27;20131;-45
2022/08/14 08:05:24;;;;;;;10.40;8.68;;;;;;;24.97;59.01;98909.06;5153470;27;20027;-45
2022/08/14 08:07:51;;;;;;;9.18;8.27;;;;;;;24.92;58.59;98916.59;5154733;27;20026;-45
2022/08/14 08:10:33;;;;;;;12.38;8.60;;;;;;;25.36;57.13;98910.06;5154810;27;20046;-45
2022/08/14 08:13:06;;;;;;;12.70;8.00;;;;;;;25.09;58.53;98900.31;5154838;27;20026;-43
2022/08/14 08:15:35;;;;;;;9.18;8.18;;;;;;;24.64;59.96;98907.94;5154342;27;20019;-43
2022/08/14 08:18:03;;;;;;;10.95;8.52;;;;;;;25.01;59.66;98905.72;5154667;27;20094;-46
2022/08/14 08:20:31;;;;;;;9.52;8.45;;;;;;;25.12;58.31;98913.25;5154524;27;20083;-43
2022/08/14 08:22:58;;;;;;;10.63;8.27;;;;;;;25.68;58.08;98907.94;5154145;27;20023;-44
2022/08/14 08:25:25;;;;;;;9.57;8.07;;;;;;;25.10;59.42;98914.69;5154082;27;20026;-43
2022/08/14 08:27:54;;;;;;;11.45;8.15;;;;;;;24.85;60.38;98919.81;5153824;27;20051;-46
2022/08/14 08:30:19;;;;;;;;;;;;;;;25.14;59.00;98915.66;5154489;27;20026;-46
2022/08/14 08:32:45;;;;;;;10.15;8.23;;;;;;;24.81;59.44;98926.19;5154704;27;19914;-43
2022/08/14 08:35:19;;;;;;;10.05;8.30;;;;;;;25.04;58.34;98916.00;5154173;27;20521;-46
2022/08/14 08:37:46;;;;;;;12.95;8.63;;;;;;;24.85;59.46;98913.56;5153981;27;20034;-46
2022/08/14 08:40:24;;;;;;;10.20;8.85;;;;;;;24.50;60.58;98902.56;5153816;27;20320;-43
2022/08/14 08:42:50;;;;;;;10.13;8.90;;;;;;;24.59;60.56;98914.31;5153930;27;20494;-43
2022/08/14 08:45:16;;;;;;;12.90;9.70;;;;;;;24.66;60.38;98920.09;5154059;27;20034;-42
2022/08/14 08:47:42;;;;;;;9.85;8.82;;;;;;;24.77;60.09;98917.88;5153793;27;20027;-42
2022/08/14 08:50:32;;;;;;;11.00;8.88;;;;;;;24.40;60.79;98922.69;5154214;27;20029;-42
2022/08/14 08:53:02;;;;;;;11.05;9.15;;;;;;;24.55;60.88;98925.00;5153751;27;20026;-44
2022/08/14 08:55:37;;;;;;;11.63;9.38;;;;;;;24.67;60.77;98927.13;5153729;27;20026;-44
2022/08/14 08:58:08;;;;;;;13.63;9.23;;;;;;;24.81;60.29;98929.72;5154057;27;20018;-42
2022/08/14 09:00:36;;;;;;;10.90;9.43;;;;;;;24.92;60.13;98925.59;5153922;27;20159;-43
2022/08/14 09:03:03;;;;;;;11.45;9.90;;;;;;;24.30;61.39;98925.72;5153574;27;20026;-44
2022/08/14 09:05:30;;;;;;;13.27;10.55;;;;;;;23.65;64.17;98919.78;5153401;27;20457;-44
2022/08/14 09:08:16;;;;;;;16.65;10.20;;;;;;;23.85;64.20;98921.19;5153653;27;20019;-43
2022/08/14 09:10:42;;;;;;;11.00;9.57;;;;;;;23.96;63.95;98908.16;5153591;27;20026;-45
2022/08/14 09:13:11;;;;;;;12.00;9.95;;;;;;;24.62;61.24;98915.59;5153572;27;20017;-43
2022/08/14 09:15:48;;;;;;;11.55;9.70;;;;;;;24.77;60.65;98923.31;5153180;27;20031;-42
2022/08/14 09:18:16;;;;;;;11.48;9.32;;;;;;;24.06;62.07;98920.66;5153532;27;20037;-43
2022/08/14 09:20:51;;;;;;;10.63;8.70;;;;;;;24.40;61.79;98909.91;5153252;27;20038;-44
2022/08/14 09:23:17;;;;;;;9.18;8.02;;;;;;;24.87;59.69;98920.28;5153038;27;20019;-43
2022/08/14 09:25:46;;;;;;;8.88;7.75;;;;;;;25.27;58.11;98920.16;5153099;27;20023;-44
2022/08/14 09:28:14;;;;;;;8.57;7.70;;;;;;;25.17;58.02;98910.38;5152960;27;20054;-45
2022/08/14 09:30:43;;;;;;;9.77;7.53;;;;;;;24.83;58.93;98916.59;5152737;27;20065;-44
2022/08/14 09:33:39;;;;;;;8.52;7.18;;;;;;;24.77;59.93;98912.44;5152844;27;20493;-43
2022/08/14 09:36:13;;;;;;;9.13;7.82;;;;;;;25.23;58.78;98911.03;5153017;27;20114;-44
2022/08/14 09:39:05;;;;;;;10.02;7.90;;;;;;;25.45;58.03;98911.97;5152763;27;20454;-43
2022/08/14 09:41:48;;;;;;;9.45;8.45;;;;;;;25.77;56.94;98905.19;5152823;27;20061;-44
2022/08/14 09:44:39;;;;;;;9.45;8.45;;;;;;;25.43;58.26;98901.41;5152573;27;20086;-45
2022/08/14 09:47:04;;;;;;;9.98;8.50;;;;;;;24.12;63.14;98909.34;5152531;27;20027;-44
2022/08/14 09:49:39;;;;;;;10.93;9.10;;;;;;;24.08;63.35;98896.69;5152439;27;20759;-44
2022/08/14 09:52:09;;;;;;;12.50;8.77;;;;;;;24.39;62.49;98891.22;5152600;27;20026;-43
2022/08/14 09:54:41;;;;;;;11.55;9.50;;;;;;;25.16;59.71;98884.25;5152838;27;20022;-43
2022/08/14 09:57:09;;;;;;;10.80;9.25;;;;;;;24.72;61.58;98904.41;5152053;27;20086;-43
2022/08/14 09:59:46;;;;;;;10.35;9.25;;;;;;;24.84;62.07;98918.19;5152441;27;20131;-46
2022/08/14 10:02:23;;;;;;;11.35;9.60;;;;;;;24.97;62.36;98922.69;5152449;27;20355;-43
2022/08/14 10:05:32;;;;;;;10.82;9.52;;;;;;;25.09;62.68;98913.09;5152591;27;20500;-46
2022/08/14 10:07:59;;;;;;;13.25;10.23;;;;;;;24.50;64.45;98918.88;5145324;27;20035;-47
2022/08/14 10:10:33;;;;;;;13.48;11.00;;;;;;;24.34;65.19;98900.28;5151952;27;20023;-46
2022/08/14 10:13:04;;;;;;;11.57;10.20;;;;;;;24.11;66.48;98890.63;5152468;27;20026;-46
2022/08/14 10:15:31;;;;;;;12.40;10.77;;;;;;;24.29;66.54;98886.03;5152385;27;20037;-47
2022/08/14 10:18:08;;;;;;;12.40;11.00;;;;;;;24.44;66.53;98884.81;5152499;27;20406;-44
2022/08/14 10:20:59;;;;;;;16.40;12.10;;;;;;;24.67;66.19;98874.66;5152274;27;20034;-49
2022/08/14 10:23:27;;;;;;;12.77;11.43;;;;;;;24.32;67.11;98869.91;5152326;27;20031;-44
2022/08/14 10:26:04;;;;;;;12.85;11.20;;;;;;;24.33;67.85;98870.69;5152347;27;20412;-45
2022/08/14 10:28:41;;;;;;;13.55;11.38;;;;;;;24.10;68.63;98868.06;5151660;27;20041;-46
2022/08/14 10:31:32;;;;;;;13.45;12.02;;;;;;;24.06;69.10;98856.22;5152421;27;20054;-45
2022/08/14 10:34:02;;;;;;;15.32;12.35;;;;;;;23.87;70.59;98852.97;5152497;27;20099;-45
2022/08/14 10:36:39;;;;;;;13.80;12.13;;;;;;;23.84;70.62;98869.88;5152134;27;20039;-46
2022/08/14 10:39:18;;;;;;;13.38;11.98;;;;;;;23.88;70.93;98863.53;5152190;27;20533;-44
2022/08/14 10:41:45;;;;;;;15.00;11.93;;;;;;;24.24;68.79;98864.44;5152287;27;20026;-46
2022/08/14 10:44:21;;;;;;;13.77;11.75;;;;;;;24.84;66.69;98857.53;5152050;27;20034;-45
2022/08/14 10:46:49;;;;;;;12.52;11.23;;;;;;;24.52;67.99;98863.13;5152075;27;20058;-46
2022/08/14 10:49:20;;;;;;;13.07;10.47;;;;;;;24.46;66.71;98856.19;5151875;27;20027;-46
2022/08/14 10:52:05;;;;;;;12.57;10.57;;;;;;;24.65;65.17;98860.56;5151772;27;20030;-43
2022/08/14 10:54:51;;;;;;;12.98;10.35;;;;;;;24.66;65.98;98849.38;5151962;27;20034;-44
2022/08/14 10:57:23;;;;;;;13.05;11.10;;;;;;;25.33;63.18;98844.56;5133091;27;20042;-44
2022/08/14 10:59:59;;;;;;;12.32;10.45;;;;;;;24.77;65.33;98830.84;5152029;27;20035;-44
2022/08/14 11:02:29;;;;;;;12.05;10.75;;;;;;;24.65;65.77;98831.44;5151708;27;20075;-46
2022/08/14 11:05:06;;;;;;;12.32;10.25;;;;;;;24.89;64.53;98839.13;5151608;27;20023;-43
2022/08/14 11:07:38;;;;;;;12.35;10.30;;;;;;;24.76;64.55;98830.00;5151696;27;20023;-43
2022/08/14 11:10:11;;;;;;;12.43;10.50;;;;;;;24.67;64.65;98833.84;5152025;27;20119;-44
2022/08/14 11:12:55;;;;;;;11.93;10.27;;;;;;;24.57;65.14;98829.53;5151823;27;20406;-44
2022/08/14 11:15:27;;;;;;;14.00;11.20;;;;;;;24.46;66.12;98826.28;5151605;27;20105;-43
2022/08/14 11:17:54;;;;;;;11.75;10.23;;;;;;;24.64;65.55;98834.50;5151770;27;20317;-42
2022/08/14 11:20:25;;;;;;;12.32;10.32;;;;;;;24.82;64.99;98840.75;5151941;27;20042;-42
2022/08/14 11:22:53;;;;;;;11.48;10.10;;;;;;;25.02;63.77;98853.72;5151350;27;20030;-44
2022/08/14 11:25:22;;;;;;;11.00;9.90;;;;;;;24.92;63.84;98857.56;5151758;27;20023;-43
2022/08/14 11:27:49;;;;;;;13.98;11.00;;;;;;;25.04;63.84;98861.56;5151402;27;20050;-44
2022/08/14 11:30:20;;;;;;;11.68;10.48;;;;;;;24.90;63.78;98851.63;5151651;27;20031;-43
2022/08/14 11:32:48;;;;;;;12.55;10.38;;;;;;;24.84;64.36;98866.50;5150827;27;20019;-42
2022/08/14 11:35:18;;;;;;;12.95;9.98;;;;;;;25.14;62.48;98862.00;5151619;27;20038;-42
2022/08/14 11:38:05;;;;;;;12.95;10.90;;;;;;;25.19;63.21;98858.34;5151602;27;20435;-45
2022/08/14 11:40:35;;;;;;;11.18;9.55;;;;;;;24.90;63.27;98857.06;5155133;27;20045;-46
2022/08/14 11:43:03;;;;;;;12.45;9.77;;;;;;;24.73;63.90;98854.31;5155023;27;20065;-45
2022/08/14 11:45:33;;;;;;;11.23;9.32;;;;;;;25.01;63.18;98864.91;5154879;27;20471;-45
2022/08/14 11:47:58;;;;;;;;;;;;;;;24.89;63.53;98865.56;5155184;27;20462;-44
2022/08/14 11:50:29;;;;;;;11.95;10.13;;;;;;;24.87;63.61;98873.25;5155237;27;19914;-45
2022/08/14 11:52:56;;;;;;;13.27;9.40;;;;;;;24.72;63.61;98856.25;5154950;27;20023;-43
2022/08/14 11:55:23;;;;;;;9.88;8.88;;;;;;;24.65;63.60;98864.06;5154917;27;20034;-43